Time,TemperatureF,DewpointF,PressureIn,WindDirection,WindDirectionDegrees,WindSpeedMPH,WindSpeedGustMPH,Humidity,HourlyPrecipIn,Conditions,Clouds,dailyrainin,SolarRadiationWatts/m^2,SoftwareType,DateUTC
2013-02-05 00:11:00,37.0,32.0,-100.00,South,185,2.0,4.0,80,-99.99,,,0.00,0.120000,,2013-02-05 08:11:00,
2013-02-05 01:11:00,36.0,32.0,-100.00,NE,47,2.0,4.0,83,-99.99,,,0.00,0.120000,,2013-02-05 09:11:00,
2013-02-05 02:11:00,36.0,32.0,-100.00,SSE,149,7.0,10.0,83,-99.99,,,-99.99,0.120000,,2013-02-05 10:11:00,
2013-02-05 03:11:00,36.0,31.0,-100.00,SSE,154,3.0,5.0,82,-99.99,,,0.00,0.120000,,2013-02-05 11:11:00,
2013-02-05 04:12:00,36.0,29.0,-100.00,South,171,4.0,6.0,76,-99.99,,,0.00,0.120000,,2013-02-05 12:12:00,
2013-02-05 05:12:00,35.0,28.0,-100.00,SSE,164,6.0,8.0,75,-99.99,,,0.00,0.120000,,2013-02-05 13:12:00,
2013-02-05 06:12:00,37.0,27.0,-100.00,South,172,5.0,8.0,67,-99.99,,,0.00,0.120000,,2013-02-05 14:12:00,
2013-02-05 07:11:00,36.0,27.0,-100.00,SSE,149,6.0,8.0,68,-99.99,,,0.00,0.120000,,2013-02-05 15:11:00,
2013-02-05 08:11:00,37.0,25.0,-100.00,SSW,198,5.0,7.0,62,-99.99,,,0.00,0.930000,,2013-02-05 16:11:00,
2013-02-05 09:11:00,42.0,29.0,-100.00,WNW,296,10.0,17.0,58,-99.99,,,-99.99,22.309999,,2013-02-05 17:11:00,
2013-02-05 10:11:00,44.0,32.0,-100.00,West,266,12.0,18.0,62,-99.99,,,0.00,51.720001,,2013-02-05 18:11:00,
2013-02-05 12:11:00,46.0,33.0,-100.00,WSW,243,11.0,16.0,59,-99.99,,,0.00,213.729996,,2013-02-05 20:11:00,
2013-02-05 13:11:00,47.0,32.0,-100.00,WSW,251,16.0,21.0,55,-99.99,,,-99.99,193.389999,,2013-02-05 21:11:00,
2013-02-05 14:11:00,49.0,31.0,-100.00,West,259,14.0,21.0,49,-99.99,,,0.00,536.700012,,2013-02-05 22:11:00,
2013-02-05 15:11:00,50.0,27.0,-100.00,WSW,245,14.0,19.0,40,-99.99,,,0.00,419.089996,,2013-02-05 23:11:00,
2013-02-05 16:11:00,50.0,28.0,-100.00,WSW,238,14.0,20.0,43,-99.99,,,0.00,490.679993,,2013-02-06 00:11:00,
2013-02-05 17:11:00,47.0,29.0,-100.00,WSW,237,18.0,26.0,50,-99.99,,,0.00,183.979996,,2013-02-06 01:11:00,
2013-02-05 18:11:00,43.0,27.0,-100.00,SW,231,16.0,28.0,53,-99.99,,,0.00,11.160000,,2013-02-06 02:11:00,
2013-02-05 19:12:00,41.0,29.0,-100.00,SW,229,14.0,20.0,62,-99.99,,,0.00,0.000000,,2013-02-06 03:12:00,
2013-02-05 20:11:00,38.0,28.0,-100.00,South,187,9.0,13.0,69,-99.99,,,0.00,0.000000,,2013-02-06 04:11:00,
2013-02-05 21:12:00,36.0,28.0,-100.00,SSW,198,9.0,12.0,71,-99.99,,,0.00,0.000000,,2013-02-06 05:12:00,
2013-02-05 22:11:00,39.0,29.0,-100.00,SW,216,6.0,10.0,66,-99.99,,,0.00,0.120000,,2013-02-06 06:11:00,
2013-02-05 23:11:00,39.0,29.0,-100.00,SW,221,12.0,17.0,67,-99.99,,,0.00,0.120000,,2013-02-06 07:11:00,